Time;durP1;ratioP1;P1;durP2;ratioP2;P2;SDS_P1;SDS_P2;PMS_P1;PMS_P2;Temp;Humidity;BMP_temperature;BMP_pressure;BME280_temperature;BME280_humidity;BME280_pressure;Samples;Min_cycle;Max_cycle;Signal;HPM_P1;HPM_P2
2021/07/16 00:01:54;;;;;;;18.17;8.20;;;;;;;;;;5023744;28;20673;-71
2021/07/16 00:04:20;;;;;;;27.15;8.63;;;;;;;;;;5014855;28;20190;-71
2021/07/16 00:06:46;;;;;;;23.10;8.55;;;;;;;;;;5020968;28;20272;-71
2021/07/16 00:09:11;;;;;;;20.27;8.57;;;;;;;;;;5011635;28;20240;-72
2021/07/16 00:11:37;;;;;;;24.92;8.20;;;;;;;;;;5020889;28;20634;-70
2021/07/16 00:14:03;;;;;;;17.20;8.27;;;;;;;;;;5011871;28;20178;-70
2021/07/16 00:16:29;;;;;;;19.15;7.78;;;;;;;;;;5022425;28;20198;-70
2021/07/16 00:18:55;;;;;;;20.80;8.50;;;;;;;;;;5007489;28;20685;-71
2021/07/16 00:21:20;;;;;;;21.90;8.95;;;;;;;;;;5021475;28;20244;-70
2021/07/16 00:23:46;;;;;;;17.45;7.55;;;;;;;;;;5016858;28;20209;-70
2021/07/16 00:26:12;;;;;;;22.10;8.80;;;;;;;;;;5023322;28;20186;-71
2021/07/16 00:28:37;;;;;;;19.60;7.88;;;;;;;;;;5015548;28;20273;-71
2021/07/16 00:31:03;;;;;;;24.90;8.85;;;;;;;;;;5026437;28;20265;-70
2021/07/16 00:33:28;;;;;;;21.38;9.30;;;;;;;;;;5025136;28;20208;-70
2021/07/16 00:35:54;;;;;;;17.83;8.40;;;;;;;;;;5018586;28;20197;-71
2021/07/16 00:38:19;;;;;;;20.00;8.15;;;;;;;;;;5017382;28;20187;-71
2021/07/16 00:40:45;;;;;;;23.48;8.38;;;;;;;;;;5017313;28;20222;-71
2021/07/16 00:43:11;;;;;;;20.45;8.38;;;;;;;;;;5024577;28;20182;-70
2021/07/16 00:45:36;;;;;;;21.08;9.07;;;;;;;;;;5015341;28;20198;-72
2021/07/16 00:48:01;;;;;;;22.38;8.43;;;;;;;;;;5024518;28;20531;-71
2021/07/16 00:50:30;;;;;;;18.35;9.23;;;;;;;;;;5016393;28;20226;-70
2021/07/16 00:52:55;;;;;;;21.88;9.77;;;;;;;;;;5026912;28;20560;-71
2021/07/16 00:55:22;;;;;;;20.73;9.07;;;;;;;;;;5014137;28;20214;-71
2021/07/16 00:57:47;;;;;;;20.42;9.30;;;;;;;;;;5023636;28;20192;-71
2021/07/16 01:00:14;;;;;;;24.48;9.77;;;;;;;;;;5015257;28;20685;-71
2021/07/16 01:02:39;;;;;;;21.52;9.13;;;;;;;;;;5027506;28;20285;-71
2021/07/16 01:05:07;;;;;;;22.92;8.98;;;;;;;;;;5024515;28;20656;-71
2021/07/16 01:07:32;;;;;;;18.95;8.30;;;;;;;;;;5018862;28;20285;-71
2021/07/16 01:10:00;;;;;;;19.77;8.95;;;;;;;;;;5024627;28;20213;-71
2021/07/16 01:12:26;;;;;;;19.70;8.43;;;;;;;;;;5016119;28;20194;-73
2021/07/16 01:14:52;;;;;;;26.45;9.15;;;;;;;;;;5024736;28;20210;-71
2021/07/16 01:17:18;;;;;;;19.52;7.85;;;;;;;;;;5016080;28;20182;-71
2021/07/16 01:19:58;;;;;;;29.02;8.20;;;;;;;;;;5005172;28;20183;-71
2021/07/16 01:22:27;;;;;;;25.08;8.50;;;;;;;;;;5008911;28;20182;-71
2021/07/16 01:24:53;;;;;;;22.50;8.43;;;;;;;;;;5011207;28;20920;-73
2021/07/16 01:27:21;;;;;;;17.15;8.07;;;;;;;;;;5011490;28;20191;-71
2021/07/16 01:29:48;;;;;;;24.25;8.57;;;;;;;;;;5008393;28;20174;-71
2021/07/16 01:32:18;;;;;;;26.50;8.48;;;;;;;;;;5013439;28;20249;-70
2021/07/16 01:34:44;;;;;;;22.50;7.95;;;;;;;;;;5026054;28;20628;-71
2021/07/16 01:37:09;;;;;;;19.13;8.27;;;;;;;;;;5011534;28;20214;-71
2021/07/16 01:39:34;;;;;;;22.58;8.02;;;;;;;;;;5022535;28;20192;-71
2021/07/16 01:42:05;;;;;;;23.15;8.05;;;;;;;;;;5025587;28;20213;-72
2021/07/16 01:44:31;;;;;;;17.35;8.25;;;;;;;;;;5000586;28;20225;-72
2021/07/16 01:46:56;;;;;;;22.98;7.60;;;;;;;;;;5024071;28;20546;-72
2021/07/16 01:49:21;;;;;;;27.10;9.07;;;;;;;;;;5016485;28;20190;-71
2021/07/16 01:51:47;;;;;;;32.38;8.60;;;;;;;;;;5026281;28;20186;-72
2021/07/16 01:54:12;;;;;;;19.05;7.63;;;;;;;;;;5014845;28;20221;-72
2021/07/16 01:56:38;;;;;;;20.65;8.88;;;;;;;;;;5021148;28;20256;-71
2021/07/16 01:59:04;;;;;;;27.20;8.05;;;;;;;;;;5014560;28;20188;-72
2021/07/16 02:01:30;;;;;;;16.40;8.13;;;;;;;;;;5025128;28;20202;-71
2021/07/16 02:03:55;;;;;;;23.83;8.10;;;;;;;;;;5017939;28;20197;-71
2021/07/16 02:06:20;;;;;;;21.15;7.45;;;;;;;;;;5021505;28;20257;-73
2021/07/16 02:08:46;;;;;;;24.50;8.15;;;;;;;;;;5008864;28;20182;-73
2021/07/16 02:11:12;;;;;;;23.88;8.20;;;;;;;;;;5007921;28;20197;-71
2021/07/16 02:13:37;;;;;;;24.05;7.85;;;;;;;;;;5027581;28;20178;-72
2021/07/16 02:16:03;;;;;;;23.25;8.48;;;;;;;;;;5012875;28;20178;-71
2021/07/16 02:18:28;;;;;;;21.75;8.23;;;;;;;;;;5009458;28;20185;-71
2021/07/16 02:20:54;;;;;;;22.13;7.78;;;;;;;;;;5012550;28;20577;-71
2021/07/16 02:23:26;;;;;;;26.88;8.70;;;;;;;;;;5026718;28;20201;-72
2021/07/16 02:25:51;;;;;;;23.67;7.80;;;;;;;;;;5016559;28;20205;-71
2021/07/16 02:28:23;;;;;;;25.40;8.75;;;;;;;;;;5021145;28;20222;-71
2021/07/16 02:30:50;;;;;;;25.05;7.70;;;;;;;;;;4996530;28;20666;-72
2021/07/16 02:33:16;;;;;;;25.23;7.55;;;;;;;;;;5025865;28;20209;-72
2021/07/16 02:35:44;;;;;;;21.55;7.63;;;;;;;;;;5016532;28;20248;-70
2021/07/16 02:38:09;;;;;;;25.50;8.38;;;;;;;;;;5024516;28;20178;-71
2021/07/16 02:40:35;;;;;;;25.88;9.00;;;;;;;;;;5014047;28;20220;-71
2021/07/16 02:43:02;;;;;;;24.25;7.65;;;;;;;;;;5025095;28;20638;-71
2021/07/16 02:45:27;;;;;;;26.70;9.27;;;;;;;;;;5016537;28;20179;-71
2021/07/16 02:47:53;;;;;;;23.58;9.18;;;;;;;;;;5016215;28;20188;-70
2021/07/16 02:50:25;;;;;;;23.45;9.13;;;;;;;;;;5021512;28;20669;-71
2021/07/16 02:52:51;;;;;;;21.98;8.80;;;;;;;;;;5013859;28;20190;-71
2021/07/16 02:55:17;;;;;;;22.83;8.35;;;;;;;;;;5017565;28;20593;-72
2021/07/16 02:57:42;;;;;;;27.30;8.95;;;;;;;;;;5011834;28;20256;-73
2021/07/16 03:00:10;;;;;;;22.08;8.02;;;;;;;;;;5019636;28;20214;-71
2021/07/16 03:02:43;;;;;;;19.48;7.70;;;;;;;;;;5018436;28;20201;-71
2021/07/16 03:05:10;;;;;;;26.17;7.93;;;;;;;;;;5020196;28;20228;-72
2021/07/16 03:07:36;;;;;;;24.10;8.02;;;;;;;;;;5013086;28;20232;-71
2021/07/16 03:10:08;;;;;;;29.45;8.77;;;;;;;;;;5022073;28;20186;-71
2021/07/16 03:12:38;;;;;;;23.83;8.40;;;;;;;;;;5016514;28;20194;-71
2021/07/16 03:15:09;;;;;;;31.05;8.68;;;;;;;;;;5023693;28;20502;-71
2021/07/16 03:17:37;;;;;;;22.83;8.30;;;;;;;;;;5013447;28;20189;-71
2021/07/16 03:20:07;;;;;;;21.80;8.20;;;;;;;;;;5021071;28;20226;-71
2021/07/16 03:22:33;;;;;;;29.20;7.43;;;;;;;;;;5017194;28;20189;-71
2021/07/16 03:24:58;;;;;;;26.60;8.38;;;;;;;;;;5018537;28;20197;-70
2021/07/16 03:27:23;;;;;;;20.52;7.25;;;;;;;;;;5017445;28;20202;-71
2021/07/16 03:29:49;;;;;;;25.55;8.70;;;;;;;;;;5011859;28;20879;-72
2021/07/16 03:32:14;;;;;;;22.77;7.32;;;;;;;;;;5015065;28;20195;-71
2021/07/16 03:34:40;;;;;;;24.60;7.40;;;;;;;;;;5014845;28;20186;-71
2021/07/16 03:37:05;;;;;;;33.72;7.57;;;;;;;;;;5025162;28;20197;-71
2021/07/16 03:39:30;;;;;;;20.60;6.95;;;;;;;;;;5011991;28;20190;-71
2021/07/16 03:41:56;;;;;;;21.27;8.23;;;;;;;;;;5024561;28;20203;-71
2021/07/16 03:44:21;;;;;;;20.40;6.90;;;;;;;;;;5015768;28;20189;-71
2021/07/16 03:46:46;;;;;;;22.08;7.78;;;;;;;;;;5018505;28;20193;-72
2021/07/16 03:49:11;;;;;;;25.77;7.53;;;;;;;;;;5015154;28;20511;-71
2021/07/16 03:51:37;;;;;;;27.52;7.50;;;;;;;;;;5024081;28;20684;-71
2021/07/16 03:54:04;;;;;;;24.38;7.45;;;;;;;;;;5012773;28;23181;-71
2021/07/16 03:56:30;;;;;;;25.40;7.30;;;;;;;;;;5019679;28;20198;-70
2021/07/16 03:58:55;;;;;;;25.40;7.22;;;;;;;;;;5026282;28;20178;-71
2021/07/16 04:01:20;;;;;;;21.88;7.50;;;;;;;;;;5017331;28;20219;-70
2021/07/16 04:03:46;;;;;;;24.65;7.00;;;;;;;;;;5026386;28;20182;-72
2021/07/16 04:06:11;;;;;;;21.90;7.55;;;;;;;;;;5015323;28;20654;-71
2021/07/16 04:08:37;;;;;;;24.80;6.82;;;;;;;;;;5028554;28;20626;-71
2021/07/16 04:11:03;;;;;;;18.95;6.65;;;;;;;;;;5016128;28;20240;-72
2021/07/16 04:13:29;;;;;;;28.05;7.22;;;;;;;;;;5027199;28;20261;-71
2021/07/16 04:15:54;;;;;;;26.38;7.15;;;;;;;;;;5016166;28;20313;-71
2021/07/16 04:18:20;;;;;;;23.45;6.80;;;;;;;;;;5024518;28;20174;-71
2021/07/16 04:20:45;;;;;;;21.83;6.78;;;;;;;;;;5017659;28;20221;-72
2021/07/16 04:23:11;;;;;;;22.73;7.10;;;;;;;;;;5026002;28;20645;-72
2021/07/16 04:25:36;;;;;;;20.58;6.47;;;;;;;;;;5016293;28;20186;-71
2021/07/16 04:28:03;;;;;;;25.67;8.15;;;;;;;;;;5027598;28;20186;-72
2021/07/16 04:30:31;;;;;;;30.77;8.38;;;;;;;;;;5027697;28;20194;-71
2021/07/16 04:32:59;;;;;;;19.00;6.38;;;;;;;;;;5016506;28;20204;-71
2021/07/16 04:35:24;;;;;;;22.58;6.63;;;;;;;;;;5028586;28;20332;-71
2021/07/16 04:37:50;;;;;;;23.88;7.22;;;;;;;;;;5016705;28;20197;-71
2021/07/16 04:40:19;;;;;;;24.10;7.53;;;;;;;;;;5025419;28;20691;-71
2021/07/16 04:42:45;;;;;;;23.13;6.30;;;;;;;;;;5018580;28;20558;-71
2021/07/16 04:45:12;;;;;;;25.30;6.90;;;;;;;;;;5026365;28;20192;-71
2021/07/16 04:47:38;;;;;;;31.13;7.63;;;;;;;;;;5013215;28;20229;-71
2021/07/16 04:50:04;;;;;;;29.13;6.57;;;;;;;;;;5028145;28;20265;-71
2021/07/16 04:52:29;;;;;;;30.02;6.82;;;;;;;;;;5014547;28;20194;-71
2021/07/16 04:54:54;;;;;;;24.55;6.45;;;;;;;;;;5024331;28;20228;-71
2021/07/16 04:57:20;;;;;;;28.15;7.32;;;;;;;;;;5000909;28;20205;-71
2021/07/16 04:59:46;;;;;;;26.85;6.68;;;;;;;;;;5024236;28;20213;-71
2021/07/16 05:02:11;;;;;;;24.92;7.18;;;;;;;;;;5026468;28;20692;-71
2021/07/16 05:04:36;;;;;;;20.45;6.20;;;;;;;;;;5014567;28;20670;-71
2021/07/16 05:07:02;;;;;;;27.85;6.80;;;;;;;;;;5023624;28;20672;-71
2021/07/16 05:09:27;;;;;;;23.15;6.55;;;;;;;;;;5013275;28;20221;-71
2021/07/16 05:11:53;;;;;;;24.58;6.65;;;;;;;;;;5020285;28;20201;-71
2021/07/16 05:14:18;;;;;;;19.75;6.15;;;;;;;;;;5012069;28;20185;-72
2021/07/16 05:16:44;;;;;;;25.02;6.28;;;;;;;;;;5021990;28;20592;-72
2021/07/16 05:19:10;;;;;;;22.30;6.10;;;;;;;;;;5017118;28;20204;-71
2021/07/16 05:21:35;;;;;;;23.45;6.10;;;;;;;;;;5025415;28;20233;-71
2021/07/16 05:24:01;;;;;;;23.23;6.70;;;;;;;;;;5014813;28;20654;-72
2021/07/16 05:26:28;;;;;;;20.30;6.45;;;;;;;;;;5020323;28;20265;-71
2021/07/16 05:28:53;;;;;;;26.45;6.47;;;;;;;;;;5014759;28;20205;-72
2021/07/16 05:31:19;;;;;;;31.60;6.47;;;;;;;;;;5023928;28;20186;-72
2021/07/16 05:33:45;;;;;;;24.80;6.38;;;;;;;;;;5024359;28;20194;-71
2021/07/16 05:36:11;;;;;;;26.65;6.38;;;;;;;;;;5000603;28;20209;-71
2021/07/16 05:38:37;;;;;;;21.83;6.13;;;;;;;;;;5002275;28;20335;-72
2021/07/16 05:41:07;;;;;;;27.13;6.05;;;;;;;;;;5015694;28;20202;-71
2021/07/16 05:43:33;;;;;;;29.48;5.85;;;;;;;;;;5021504;28;20259;-72
2021/07/16 05:45:59;;;;;;;20.83;5.30;;;;;;;;;;5017351;28;20276;-72
2021/07/16 05:48:25;;;;;;;24.38;5.90;;;;;;;;;;5021121;28;20324;-72
2021/07/16 05:50:50;;;;;;;22.23;5.53;;;;;;;;;;5014480;28;20210;-72
2021/07/16 05:53:17;;;;;;;23.60;5.45;;;;;;;;;;5025079;28;20212;-71
2021/07/16 05:55:42;;;;;;;27.98;5.97;;;;;;;;;;5018137;28;20182;-71
2021/07/16 05:58:08;;;;;;;30.77;6.30;;;;;;;;;;5008664;28;20198;-71
2021/07/16 06:00:34;;;;;;;20.48;5.95;;;;;;;;;;5010124;28;20686;-72
2021/07/16 06:03:00;;;;;;;27.15;5.38;;;;;;;;;;5023556;28;20320;-72
2021/07/16 06:05:26;;;;;;;25.05;6.35;;;;;;;;;;5004878;28;20187;-71
2021/07/16 06:07:51;;;;;;;21.65;5.75;;;;;;;;;;5015225;28;20239;-72
2021/07/16 06:10:16;;;;;;;29.00;5.65;;;;;;;;;;5024798;28;20276;-71
2021/07/16 06:12:42;;;;;;;20.58;6.40;;;;;;;;;;5013100;28;20612;-71
2021/07/16 06:15:09;;;;;;;29.08;5.70;;;;;;;;;;5026649;28;20265;-71
2021/07/16 06:17:34;;;;;;;27.25;5.13;;;;;;;;;;5014407;28;20379;-71
2021/07/16 06:20:01;;;;;;;20.77;4.82;;;;;;;;;;5007013;28;20210;-70
2021/07/16 06:22:26;;;;;;;24.13;5.68;;;;;;;;;;5011201;28;20190;-71
2021/07/16 06:24:52;;;;;;;25.15;5.88;;;;;;;;;;5008571;28;20182;-71
2021/07/16 06:27:17;;;;;;;28.05;5.85;;;;;;;;;;5013320;28;20189;-72
2021/07/16 06:29:43;;;;;;;29.58;5.95;;;;;;;;;;5027106;28;20182;-72
2021/07/16 06:32:08;;;;;;;22.30;5.53;;;;;;;;;;5015359;28;20233;-74
2021/07/16 06:34:34;;;;;;;27.58;5.55;;;;;;;;;;5027373;28;20178;-71
2021/07/16 06:36:59;;;;;;;26.95;5.72;;;;;;;;;;5017734;28;20190;-72
2021/07/16 06:39:25;;;;;;;28.35;6.20;;;;;;;;;;5004231;28;20182;-71
2021/07/16 06:41:50;;;;;;;28.42;6.18;;;;;;;;;;5023500;28;20249;-71
2021/07/16 06:44:16;;;;;;;32.90;6.57;;;;;;;;;;5018352;28;20520;-71
2021/07/16 06:46:42;;;;;;;26.02;5.55;;;;;;;;;;5024279;28;20550;-71
2021/07/16 06:49:07;;;;;;;19.73;5.20;;;;;;;;;;5010466;28;20178;-72
2021/07/16 06:51:33;;;;;;;27.80;5.55;;;;;;;;;;5025947;28;20778;-72
2021/07/16 06:53:59;;;;;;;28.42;5.72;;;;;;;;;;5034150;28;20193;-71
2021/07/16 06:56:25;;;;;;;26.85;6.18;;;;;;;;;;5042648;28;20185;-71
2021/07/16 06:58:52;;;;;;;21.10;4.97;;;;;;;;;;5034140;28;20239;-72
2021/07/16 07:01:18;;;;;;;26.08;5.30;;;;;;;;;;5044819;28;20280;-72
2021/07/16 07:03:43;;;;;;;27.98;5.82;;;;;;;;;;5018136;28;20205;-72
2021/07/16 07:06:08;;;;;;;22.85;5.18;;;;;;;;;;5039668;28;20193;-73
2021/07/16 07:08:34;;;;;;;26.38;5.72;;;;;;;;;;5037517;28;20189;-73
2021/07/16 07:10:59;;;;;;;21.80;5.50;;;;;;;;;;5035650;28;20251;-73
2021/07/16 07:13:24;;;;;;;26.45;5.50;;;;;;;;;;5043135;28;20173;-71
2021/07/16 07:15:50;;;;;;;26.92;5.25;;;;;;;;;;5031964;28;20200;-71
2021/07/16 07:18:15;;;;;;;20.52;4.88;;;;;;;;;;5043430;28;20272;-71
2021/07/16 07:20:41;;;;;;;33.25;6.57;;;;;;;;;;5013639;28;20220;-71
2021/07/16 07:23:07;;;;;;;27.90;5.28;;;;;;;;;;5040928;28;20177;-71
2021/07/16 07:25:32;;;;;;;27.38;5.40;;;;;;;;;;5035461;28;20198;-71
2021/07/16 07:27:58;;;;;;;25.13;5.50;;;;;;;;;;5042765;28;20647;-74
2021/07/16 07:30:24;;;;;;;32.25;6.15;;;;;;;;;;5015861;28;20193;-70
2021/07/16 07:32:50;;;;;;;36.50;6.82;;;;;;;;;;5041157;28;20181;-71
2021/07/16 07:35:15;;;;;;;24.52;5.25;;;;;;;;;;5034310;28;20192;-71
2021/07/16 07:37:41;;;;;;;32.38;5.88;;;;;;;;;;5034013;28;20169;-71
2021/07/16 07:40:09;;;;;;;23.80;5.22;;;;;;;;;;5042497;28;20315;-74
2021/07/16 07:42:35;;;;;;;34.70;6.25;;;;;;;;;;5020258;28;20200;-70
2021/07/16 07:45:00;;;;;;;35.05;6.20;;;;;;;;;;5041820;28;21940;-71
2021/07/16 07:47:31;;;;;;;33.30;6.47;;;;;;;;;;5028735;28;20189;-72
2021/07/16 07:49:57;;;;;;;33.85;5.90;;;;;;;;;;5028673;28;20229;-70
2021/07/16 07:52:22;;;;;;;37.17;6.95;;;;;;;;;;5035450;28;20239;-70
2021/07/16 07:54:48;;;;;;;35.53;6.45;;;;;;;;;;5045038;28;20193;-70
2021/07/16 07:57:13;;;;;;;30.42;5.88;;;;;;;;;;5035476;28;20196;-70
2021/07/16 07:59:40;;;;;;;35.83;6.18;;;;;;;;;;5043838;28;20213;-74
2021/07/16 08:02:06;;;;;;;34.33;7.07;;;;;;;;;;5029977;28;20212;-70
2021/07/16 08:04:31;;;;;;;32.08;6.18;;;;;;;;;;5042254;28;20197;-71
2021/07/16 08:06:56;;;;;;;31.45;6.65;;;;;;;;;;5033591;28;20242;-72
2021/07/16 08:09:22;;;;;;;37.92;7.07;;;;;;;;;;5039112;28;20197;-71
2021/07/16 08:11:47;;;;;;;33.33;6.22;;;;;;;;;;5044014;28;20174;-71
2021/07/16 08:14:13;;;;;;;29.80;6.20;;;;;;;;;;5034583;28;20608;-74
2021/07/16 08:16:42;;;;;;;28.30;6.15;;;;;;;;;;5043930;28;20660;-71
2021/07/16 08:19:07;;;;;;;34.08;6.55;;;;;;;;;;5033279;28;20182;-70
2021/07/16 08:21:32;;;;;;;31.38;5.68;;;;;;;;;;5045987;28;20209;-71
2021/07/16 08:23:58;;;;;;;41.00;7.43;;;;;;;;;;5034565;28;20662;-71
2021/07/16 08:26:23;;;;;;;35.22;6.72;;;;;;;;;;5041504;28;20189;-71
2021/07/16 08:28:48;;;;;;;35.88;6.22;;;;;;;;;;5033977;28;20189;-72
2021/07/16 08:31:14;;;;;;;32.35;6.70;;;;;;;;;;5044503;28;20303;-71
2021/07/16 08:33:39;;;;;;;35.03;6.25;;;;;;;;;;5035995;28;20647;-71
2021/07/16 08:36:05;;;;;;;32.10;6.03;;;;;;;;;;5042857;28;20209;-72
2021/07/16 08:38:30;;;;;;;41.45;7.75;;;;;;;;;;5032384;28;20276;-72
2021/07/16 08:40:55;;;;;;;30.02;6.07;;;;;;;;;;5041734;28;20288;-73
2021/07/16 08:43:23;;;;;;;33.17;6.63;;;;;;;;;;5038232;28;20585;-71
2021/07/16 08:45:51;;;;;;;39.35;6.85;;;;;;;;;;5034962;28;20284;-72
2021/07/16 08:48:16;;;;;;;24.13;6.03;;;;;;;;;;5048460;28;20193;-72
2021/07/16 08:50:42;;;;;;;30.13;6.47;;;;;;;;;;5024061;28;20222;-71
2021/07/16 08:53:08;;;;;;;30.35;5.90;;;;;;;;;;5025155;28;20638;-72
2021/07/16 08:55:36;;;;;;;26.90;5.82;;;;;;;;;;5018962;28;20240;-71
2021/07/16 08:58:05;;;;;;;35.45;7.13;;;;;;;;;;5025852;28;20585;-71
2021/07/16 09:00:31;;;;;;;30.35;5.35;;;;;;;;;;5015327;28;20227;-71
2021/07/16 09:02:59;;;;;;;28.60;5.88;;;;;;;;;;5025093;28;20554;-72
2021/07/16 09:05:37;;;;;;;31.42;5.80;;;;;;;;;;5010976;28;20198;-72
2021/07/16 09:08:04;;;;;;;31.63;5.57;;;;;;;;;;5024725;28;20703;-72
2021/07/16 09:10:30;;;;;;;30.67;5.45;;;;;;;;;;5015795;28;20747;-71
2021/07/16 09:13:00;;;;;;;23.55;5.60;;;;;;;;;;5023257;28;20187;-71
2021/07/16 09:15:27;;;;;;;26.15;4.97;;;;;;;;;;5015076;28;20201;-71
2021/07/16 09:18:11;;;;;;;23.67;4.93;;;;;;;;;;5021711;28;20274;-73
2021/07/16 09:20:37;;;;;;;20.15;5.13;;;;;;;;;;5017871;28;20263;-74
2021/07/16 09:23:11;;;;;;;21.85;5.85;;;;;;;;;;5021871;28;20580;-72
2021/07/16 09:25:38;;;;;;;34.63;6.28;;;;;;;;;;5018200;28;20228;-72
2021/07/16 09:28:04;;;;;;;30.77;5.93;;;;;;;;;;5021740;28;20182;-72
2021/07/16 09:30:30;;;;;;;25.65;6.25;;;;;;;;;;5005013;28;20229;-73
2021/07/16 09:33:05;;;;;;;27.55;4.97;;;;;;;;;;5018105;28;20704;-72
2021/07/16 09:35:34;;;;;;;24.08;5.95;;;;;;;;;;5006873;28;20272;-72
2021/07/16 09:38:05;;;;;;;27.20;5.53;;;;;;;;;;5017299;28;20300;-71
2021/07/16 09:40:33;;;;;;;21.83;4.75;;;;;;;;;;5025015;28;20238;-71
2021/07/16 09:43:01;;;;;;;25.73;5.75;;;;;;;;;;5011816;28;20276;-74
2021/07/16 09:45:27;;;;;;;22.45;4.63;;;;;;;;;;5021237;28;20190;-72
2021/07/16 09:47:52;;;;;;;30.85;5.68;;;;;;;;;;5013472;28;20193;-71
2021/07/16 09:50:23;;;;;;;25.00;6.05;;;;;;;;;;5025153;28;20304;-71
2021/07/16 09:53:10;;;;;;;26.58;6.25;;;;;;;;;;5011891;28;20187;-73
2021/07/16 09:55:36;;;;;;;23.00;5.65;;;;;;;;;;5022195;28;20272;-72
2021/07/16 09:58:01;;;;;;;23.67;5.10;;;;;;;;;;5019141;28;20864;-73
2021/07/16 10:00:26;;;;;;;24.92;5.45;;;;;;;;;;5005562;28;20214;-72
2021/07/16 10:02:54;;;;;;;22.60;5.53;;;;;;;;;;5014994;28;20198;-72
2021/07/16 10:05:20;;;;;;;22.77;5.05;;;;;;;;;;5021837;28;20206;-72
2021/07/16 10:07:46;;;;;;;26.88;5.93;;;;;;;;;;5022104;28;20186;-73
2021/07/16 10:10:21;;;;;;;29.70;5.97;;;;;;;;;;5022685;28;20521;-73
2021/07/16 10:12:49;;;;;;;27.08;5.60;;;;;;;;;;5026221;28;20533;-73
2021/07/16 10:15:18;;;;;;;22.80;5.20;;;;;;;;;;5011408;28;20195;-72
2021/07/16 10:17:44;;;;;;;25.63;5.95;;;;;;;;;;5020984;28;20544;-73
2021/07/16 10:20:11;;;;;;;26.60;4.88;;;;;;;;;;4999735;28;20186;-72
2021/07/16 10:22:41;;;;;;;20.48;5.45;;;;;;;;;;5027324;28;20178;-72
2021/07/16 10:25:08;;;;;;;27.50;5.30;;;;;;;;;;5012618;28;20684;-73
2021/07/16 10:27:34;;;;;;;27.25;5.25;;;;;;;;;;5022326;28;20225;-73
2021/07/16 10:30:06;;;;;;;20.90;5.57;;;;;;;;;;5014262;28;20194;-72
2021/07/16 10:32:41;;;;;;;20.35;5.47;;;;;;;;;;5026910;28;20186;-72
2021/07/16 10:35:18;;;;;;;22.85;5.00;;;;;;;;;;5015527;28;20194;-72
2021/07/16 10:37:44;;;;;;;22.50;5.80;;;;;;;;;;5014862;28;20271;-72
2021/07/16 10:40:43;;;;;;;25.58;5.72;;;;;;;;;;5012674;28;20209;-72
2021/07/16 10:43:27;;;;;;;27.85;5.63;;;;;;;;;;5017622;28;20244;-75
2021/07/16 10:45:56;;;;;;;23.05;5.72;;;;;;;;;;5012257;28;20240;-72
2021/07/16 10:48:23;;;;;;;26.98;6.00;;;;;;;;;;5000945;28;20587;-72
2021/07/16 10:50:50;;;;;;;23.38;6.05;;;;;;;;;;5012846;28;20233;-72
2021/07/16 10:53:27;;;;;;;24.35;5.40;;;;;;;;;;5020129;28;20247;-72
2021/07/16 10:55:56;;;;;;;24.10;6.32;;;;;;;;;;5001629;28;20616;-72
2021/07/16 10:58:24;;;;;;;18.13;5.30;;;;;;;;;;5022154;28;20194;-71
2021/07/16 11:00:51;;;;;;;22.52;4.82;;;;;;;;;;5012980;28;20221;-71
2021/07/16 11:03:18;;;;;;;20.60;5.65;;;;;;;;;;5021463;28;20236;-72
2021/07/16 11:05:44;;;;;;;22.25;4.88;;;;;;;;;;5017813;28;20193;-75
2021/07/16 11:08:35;;;;;;;23.95;5.72;;;;;;;;;;5021296;28;20185;-71
2021/07/16 11:11:05;;;;;;;25.25;5.68;;;;;;;;;;5011690;28;20665;-73
2021/07/16 11:13:37;;;;;;;20.52;5.25;;;;;;;;;;5019886;28;20208;-71
2021/07/16 11:16:15;;;;;;;29.63;5.72;;;;;;;;;;5002750;28;20243;-73
2021/07/16 11:19:03;;;;;;;27.27;6.00;;;;;;;;;;5023494;28;20263;-72
2021/07/16 11:21:47;;;;;;;33.22;6.63;;;;;;;;;;5015479;28;20809;-72
2021/07/16 11:24:18;;;;;;;25.15;5.47;;;;;;;;;;5023548;28;20174;-74
2021/07/16 11:27:09;;;;;;;21.70;5.50;;;;;;;;;;5012884;28;20263;-72
2021/07/16 11:29:36;;;;;;;30.65;6.30;;;;;;;;;;5023576;28;20657;-71
2021/07/16 11:32:11;;;;;;;27.70;6.28;;;;;;;;;;5015564;28;20174;-70
2021/07/16 11:34:44;;;;;;;23.27;5.72;;;;;;;;;;5026622;28;20182;-72
2021/07/16 11:37:09;;;;;;;28.17;5.95;;;;;;;;;;5013366;28;20231;-73
2021/07/16 11:39:36;;;;;;;25.40;5.90;;;;;;;;;;5016467;28;20194;-72
2021/07/16 11:42:08;;;;;;;25.33;5.82;;;;;;;;;;5021821;28;20190;-72
2021/07/16 11:44:43;;;;;;;20.05;5.07;;;;;;;;;;5011335;28;20552;-72
2021/07/16 11:47:23;;;;;;;23.52;5.10;;;;;;;;;;5003809;28;20187;-72
2021/07/16 11:49:50;;;;;;;27.90;5.82;;;;;;;;;;5010049;28;20241;-72
2021/07/16 11:52:22;;;;;;;31.40;5.55;;;;;;;;;;5003516;28;20196;-71
2021/07/16 11:54:51;;;;;;;27.30;5.90;;;;;;;;;;5017186;28;20650;-72
2021/07/16 11:57:16;;;;;;;28.33;5.35;;;;;;;;;;5023900;28;20190;-72
2021/07/16 11:59:53;;;;;;;19.25;5.25;;;;;;;;;;5015085;28;20218;-73
2021/07/16 12:02:20;;;;;;;26.17;5.47;;;;;;;;;;5006103;28;20210;-72
2021/07/16 12:04:47;;;;;;;27.70;5.90;;;;;;;;;;5014048;28;20182;-72
2021/07/16 12:07:14;;;;;;;22.45;5.57;;;;;;;;;;5021059;28;20574;-73
2021/07/16 12:09:42;;;;;;;22.40;5.13;;;;;;;;;;5016337;28;20213;-73
2021/07/16 12:12:18;;;;;;;26.30;5.95;;;;;;;;;;5021050;28;20182;-72
2021/07/16 12:14:45;;;;;;;23.38;6.20;;;;;;;;;;4989771;28;20182;-73
2021/07/16 12:17:11;;;;;;;22.90;5.22;;;;;;;;;;5023075;28;20189;-72
2021/07/16 12:19:37;;;;;;;22.33;5.25;;;;;;;;;;5013691;28;20199;-74
2021/07/16 12:22:03;;;;;;;25.23;5.45;;;;;;;;;;5023585;28;20263;-72
2021/07/16 12:24:28;;;;;;;24.92;5.07;;;;;;;;;;5024191;28;20186;-72
2021/07/16 12:27:08;;;;;;;24.17;6.05;;;;;;;;;;5022531;28;20286;-72
2021/07/16 12:29:33;;;;;;;22.83;5.53;;;;;;;;;;5027954;28;20322;-72
2021/07/16 12:31:59;;;;;;;25.80;4.97;;;;;;;;;;5015949;28;20307;-72
2021/07/16 12:34:26;;;;;;;27.58;5.88;;;;;;;;;;5027390;28;20655;-73
2021/07/16 12:37:09;;;;;;;25.42;6.03;;;;;;;;;;5020476;28;20197;-73
2021/07/16 12:39:35;;;;;;;23.70;5.32;;;;;;;;;;5026605;28;20202;-72
2021/07/16 12:42:11;;;;;;;27.27;5.57;;;;;;;;;;5000546;28;20206;-72
2021/07/16 12:44:36;;;;;;;23.58;6.07;;;;;;;;;;5026372;28;20189;-73
2021/07/16 12:47:02;;;;;;;21.35;6.07;;;;;;;;;;5000705;28;20198;-73
2021/07/16 12:49:28;;;;;;;25.00;5.72;;;;;;;;;;5023111;28;20194;-76
2021/07/16 12:51:53;;;;;;;24.75;5.40;;;;;;;;;;5012958;28;20187;-74
2021/07/16 12:54:24;;;;;;;25.17;6.10;;;;;;;;;;5022263;28;20194;-72
2021/07/16 12:56:49;;;;;;;24.63;5.63;;;;;;;;;;5014299;28;20186;-72
2021/07/16 12:59:28;;;;;;;21.33;5.50;;;;;;;;;;5024072;28;20208;-73
2021/07/16 13:01:58;;;;;;;21.13;5.25;;;;;;;;;;5011007;28;20207;-72
2021/07/16 13:04:27;;;;;;;18.73;5.40;;;;;;;;;;5008981;28;20280;-72
2021/07/16 13:06:54;;;;;;;24.40;5.25;;;;;;;;;;5014809;28;20197;-72
2021/07/16 13:09:26;;;;;;;25.00;5.63;;;;;;;;;;5023837;28;20644;-74
2021/07/16 13:12:00;;;;;;;25.35;5.65;;;;;;;;;;5022007;28;20197;-73
2021/07/16 13:14:30;;;;;;;23.23;5.88;;;;;;;;;;5024039;28;20221;-75
2021/07/16 13:17:19;;;;;;;30.48;6.25;;;;;;;;;;5027486;28;20209;-73
2021/07/16 13:19:45;;;;;;;25.70;5.68;;;;;;;;;;5024377;28;20610;-73
2021/07/16 13:22:10;;;;;;;30.73;6.18;;;;;;;;;;5001034;28;20309;-72
2021/07/16 13:24:36;;;;;;;25.55;6.05;;;;;;;;;;5017748;28;20380;-72
2021/07/16 13:27:01;;;;;;;29.05;6.00;;;;;;;;;;5027091;28;20182;-72
2021/07/16 13:29:27;;;;;;;27.60;5.97;;;;;;;;;;4998624;28;20190;-72
2021/07/16 13:31:52;;;;;;;25.35;6.25;;;;;;;;;;5026932;28;20178;-72
2021/07/16 13:34:18;;;;;;;21.77;5.47;;;;;;;;;;5016324;28;20194;-72
2021/07/16 13:36:43;;;;;;;27.75;6.10;;;;;;;;;;5019693;28;20186;-72
2021/07/16 13:39:08;;;;;;;27.10;5.72;;;;;;;;;;5017512;28;20186;-72
2021/07/16 13:41:34;;;;;;;25.73;5.57;;;;;;;;;;5009087;28;20221;-72
2021/07/16 13:43:59;;;;;;;17.55;5.22;;;;;;;;;;5019247;28;20189;-73
2021/07/16 13:46:25;;;;;;;23.60;5.32;;;;;;;;;;5025146;28;20194;-73
2021/07/16 13:48:50;;;;;;;27.83;5.68;;;;;;;;;;5001448;28;20642;-74
2021/07/16 13:51:15;;;;;;;22.90;5.93;;;;;;;;;;5024523;28;20248;-73
2021/07/16 13:53:41;;;;;;;21.10;5.57;;;;;;;;;;5025035;28;20656;-73
2021/07/16 13:56:07;;;;;;;23.10;5.78;;;;;;;;;;5017186;28;20568;-72
2021/07/16 13:58:32;;;;;;;26.15;5.90;;;;;;;;;;5007464;28;20189;-73
2021/07/16 14:00:57;;;;;;;24.27;5.93;;;;;;;;;;5013192;28;20213;-72
2021/07/16 14:03:23;;;;;;;25.15;5.68;;;;;;;;;;5023072;28;20180;-72
2021/07/16 14:05:49;;;;;;;22.40;5.93;;;;;;;;;;4995940;28;20660;-72
2021/07/16 14:08:15;;;;;;;29.38;5.53;;;;;;;;;;5023159;28;20220;-72
2021/07/16 14:10:40;;;;;;;28.60;6.20;;;;;;;;;;5013111;28;20213;-72
2021/07/16 14:13:06;;;;;;;26.48;6.18;;;;;;;;;;5025902;28;20166;-73
2021/07/16 14:15:31;;;;;;;22.30;6.25;;;;;;;;;;5012345;28;20541;-74
2021/07/16 14:17:56;;;;;;;29.27;6.03;;;;;;;;;;5009565;28;20182;-72
2021/07/16 14:20:22;;;;;;;22.23;5.60;;;;;;;;;;5015601;28;20202;-72
2021/07/16 14:22:47;;;;;;;19.38;5.60;;;;;;;;;;5003920;28;20185;-72
2021/07/16 14:25:13;;;;;;;28.40;6.25;;;;;;;;;;5022960;28;20190;-73
2021/07/16 14:27:40;;;;;;;21.17;6.03;;;;;;;;;;5013321;28;20300;-72
2021/07/16 14:30:09;;;;;;;29.77;6.03;;;;;;;;;;5018409;28;20218;-74
2021/07/16 14:32:34;;;;;;;22.90;6.20;;;;;;;;;;5013489;28;20193;-72